sensor_id;sensor_type;location;lat;lon;timestamp;P1;durP1;ratioP1;P2;durP2;ratioP2
15317;SDS011;7759;52.528;13.346;2023-03-13T00:00:11;4.87;;;3.17;;
15317;SDS011;7759;52.528;13.346;2023-03-13T00:02:38;5.53;;;2.60;;
15317;SDS011;7759;52.528;13.346;2023-03-13T00:05:04;4.83;;;3.23;;
15317;SDS011;7759;52.528;13.346;2023-03-13T00:07:30;7.67;;;2.77;;
15317;SDS011;7759;52.528;13.346;2023-03-13T00:09:56;4.07;;;2.43;;
15317;SDS011;7759;52.528;13.346;2023-03-13T00:12:22;9.00;;;2.97;;
15317;SDS011;7759;52.528;13.346;2023-03-13T00:14:48;7.10;;;3.23;;
15317;SDS011;7759;52.528;13.346;2023-03-13T00:17:13;4.33;;;2.53;;
15317;SDS011;7759;52.528;13.346;2023-03-13T00:19:40;8.47;;;3.43;;
15317;SDS011;7759;52.528;13.346;2023-03-13T00:22:06;7.93;;;3.40;;
15317;SDS011;7759;52.528;13.346;2023-03-13T00:24:32;5.87;;;2.87;;
15317;SDS011;7759;52.528;13.346;2023-03-13T00:26:58;7.57;;;2.77;;
15317;SDS011;7759;52.528;13.346;2023-03-13T00:29:27;6.20;;;3.37;;
15317;SDS011;7759;52.528;13.346;2023-03-13T00:31:53;5.93;;;2.80;;
15317;SDS011;7759;52.528;13.346;2023-03-13T00:34:18;10.83;;;3.73;;
15317;SDS011;7759;52.528;13.346;2023-03-13T00:36:44;6.67;;;2.47;;
15317;SDS011;7759;52.528;13.346;2023-03-13T00:39:10;5.70;;;2.67;;
15317;SDS011;7759;52.528;13.346;2023-03-13T00:41:36;5.40;;;2.43;;
15317;SDS011;7759;52.528;13.346;2023-03-13T00:44:02;4.73;;;2.30;;
15317;SDS011;7759;52.528;13.346;2023-03-13T00:46:29;5.50;;;2.80;;
15317;SDS011;7759;52.528;13.346;2023-03-13T00:48:55;8.70;;;3.23;;
15317;SDS011;7759;52.528;13.346;2023-03-13T00:51:22;7.73;;;3.40;;
15317;SDS011;7759;52.528;13.346;2023-03-13T00:53:50;5.37;;;2.50;;
15317;SDS011;7759;52.528;13.346;2023-03-13T00:56:17;7.77;;;3.03;;
15317;SDS011;7759;52.528;13.346;2023-03-13T00:58:44;7.80;;;3.13;;
15317;SDS011;7759;52.528;13.346;2023-03-13T01:01:11;8.67;;;3.40;;
15317;SDS011;7759;52.528;13.346;2023-03-13T01:03:38;5.03;;;2.67;;
15317;SDS011;7759;52.528;13.346;2023-03-13T01:06:05;5.20;;;2.80;;
15317;SDS011;7759;52.528;13.346;2023-03-13T01:08:32;5.30;;;3.17;;
15317;SDS011;7759;52.528;13.346;2023-03-13T01:10:58;7.97;;;3.87;;
15317;SDS011;7759;52.528;13.346;2023-03-13T01:13:24;4.40;;;2.67;;
15317;SDS011;7759;52.528;13.346;2023-03-13T01:15:50;9.03;;;3.20;;
15317;SDS011;7759;52.528;13.346;2023-03-13T01:18:16;7.03;;;3.63;;
15317;SDS011;7759;52.528;13.346;2023-03-13T01:20:43;7.57;;;3.00;;
15317;SDS011;7759;52.528;13.346;2023-03-13T01:23:09;11.33;;;3.53;;
15317;SDS011;7759;52.528;13.346;2023-03-13T01:25:35;7.70;;;2.70;;
15317;SDS011;7759;52.528;13.346;2023-03-13T01:28:02;8.40;;;2.73;;
15317;SDS011;7759;52.528;13.346;2023-03-13T01:30:28;6.43;;;3.10;;
15317;SDS011;7759;52.528;13.346;2023-03-13T01:32:54;6.10;;;2.67;;
15317;SDS011;7759;52.528;13.346;2023-03-13T01:35:19;6.60;;;2.70;;
15317;SDS011;7759;52.528;13.346;2023-03-13T01:37:45;5.20;;;2.77;;
15317;SDS011;7759;52.528;13.346;2023-03-13T01:40:11;8.73;;;3.27;;
15317;SDS011;7759;52.528;13.346;2023-03-13T01:42:51;4.63;;;2.33;;
15317;SDS011;7759;52.528;13.346;2023-03-13T01:48:02;3.63;;;2.27;;
15317;SDS011;7759;52.528;13.346;2023-03-13T01:50:28;5.37;;;2.93;;
15317;SDS011;7759;52.528;13.346;2023-03-13T01:52:54;8.13;;;3.17;;
15317;SDS011;7759;52.528;13.346;2023-03-13T01:55:20;4.73;;;3.00;;
15317;SDS011;7759;52.528;13.346;2023-03-13T01:57:52;5.33;;;2.83;;
15317;SDS011;7759;52.528;13.346;2023-03-13T02:00:19;5.83;;;2.77;;
15317;SDS011;7759;52.528;13.346;2023-03-13T02:02:47;5.90;;;2.60;;
15317;SDS011;7759;52.528;13.346;2023-03-13T02:05:15;7.10;;;2.80;;
15317;SDS011;7759;52.528;13.346;2023-03-13T02:07:44;6.70;;;2.47;;
15317;SDS011;7759;52.528;13.346;2023-03-13T02:10:12;5.33;;;2.60;;
15317;SDS011;7759;52.528;13.346;2023-03-13T02:12:39;6.40;;;2.50;;
15317;SDS011;7759;52.528;13.346;2023-03-13T02:15:07;8.77;;;3.20;;
15317;SDS011;7759;52.528;13.346;2023-03-13T02:17:34;12.60;;;6.50;;
15317;SDS011;7759;52.528;13.346;2023-03-13T02:20:00;10.90;;;3.57;;
15317;SDS011;7759;52.528;13.346;2023-03-13T02:22:41;7.03;;;2.83;;
15317;SDS011;7759;52.528;13.346;2023-03-13T02:27:56;4.40;;;2.50;;
15317;SDS011;7759;52.528;13.346;2023-03-13T02:30:23;5.80;;;2.43;;
15317;SDS011;7759;52.528;13.346;2023-03-13T02:32:49;6.77;;;2.40;;
15317;SDS011;7759;52.528;13.346;2023-03-13T02:35:16;7.37;;;3.27;;
15317;SDS011;7759;52.528;13.346;2023-03-13T02:37:43;4.77;;;2.63;;
15317;SDS011;7759;52.528;13.346;2023-03-13T02:40:11;7.53;;;3.13;;
15317;SDS011;7759;52.528;13.346;2023-03-13T02:42:39;6.30;;;2.60;;
15317;SDS011;7759;52.528;13.346;2023-03-13T02:45:06;4.73;;;2.63;;
15317;SDS011;7759;52.528;13.346;2023-03-13T02:47:32;7.23;;;3.07;;
15317;SDS011;7759;52.528;13.346;2023-03-13T02:49:58;5.17;;;2.50;;
15317;SDS011;7759;52.528;13.346;2023-03-13T02:52:28;5.53;;;2.77;;
15317;SDS011;7759;52.528;13.346;2023-03-13T02:54:56;5.03;;;2.60;;
15317;SDS011;7759;52.528;13.346;2023-03-13T02:57:23;6.53;;;2.77;;
15317;SDS011;7759;52.528;13.346;2023-03-13T02:59:49;4.63;;;2.27;;
15317;SDS011;7759;52.528;13.346;2023-03-13T03:02:15;9.90;;;2.43;;
15317;SDS011;7759;52.528;13.346;2023-03-13T03:04:41;12.43;;;2.80;;
15317;SDS011;7759;52.528;13.346;2023-03-13T03:07:06;4.40;;;2.63;;
15317;SDS011;7759;52.528;13.346;2023-03-13T03:09:32;7.80;;;2.27;;
15317;SDS011;7759;52.528;13.346;2023-03-13T03:11:58;5.40;;;2.43;;
15317;SDS011;7759;52.528;13.346;2023-03-13T03:14:24;6.50;;;3.23;;
15317;SDS011;7759;52.528;13.346;2023-03-13T03:16:50;4.70;;;2.10;;
15317;SDS011;7759;52.528;13.346;2023-03-13T03:19:16;9.20;;;2.40;;
15317;SDS011;7759;52.528;13.346;2023-03-13T03:21:42;6.90;;;2.00;;
15317;SDS011;7759;52.528;13.346;2023-03-13T03:24:08;5.57;;;2.07;;
15317;SDS011;7759;52.528;13.346;2023-03-13T03:26:34;6.83;;;2.80;;
15317;SDS011;7759;52.528;13.346;2023-03-13T03:29:00;4.37;;;1.87;;
15317;SDS011;7759;52.528;13.346;2023-03-13T03:31:25;6.60;;;2.40;;
15317;SDS011;7759;52.528;13.346;2023-03-13T03:33:51;7.67;;;2.27;;
15317;SDS011;7759;52.528;13.346;2023-03-13T03:36:18;6.03;;;2.07;;
15317;SDS011;7759;52.528;13.346;2023-03-13T03:38:45;9.83;;;2.37;;
15317;SDS011;7759;52.528;13.346;2023-03-13T03:41:11;7.63;;;1.93;;
15317;SDS011;7759;52.528;13.346;2023-03-13T03:43:40;9.67;;;2.57;;
15317;SDS011;7759;52.528;13.346;2023-03-13T03:46:06;5.20;;;2.13;;
15317;SDS011;7759;52.528;13.346;2023-03-13T03:48:32;7.73;;;2.80;;
15317;SDS011;7759;52.528;13.346;2023-03-13T03:50:58;4.30;;;2.10;;
15317;SDS011;7759;52.528;13.346;2023-03-13T03:53:25;3.47;;;2.00;;
15317;SDS011;7759;52.528;13.346;2023-03-13T03:55:52;9.03;;;2.17;;
15317;SDS011;7759;52.528;13.346;2023-03-13T03:58:17;4.20;;;1.93;;
15317;SDS011;7759;52.528;13.346;2023-03-13T04:00:44;3.43;;;1.40;;
15317;SDS011;7759;52.528;13.346;2023-03-13T04:03:10;15.97;;;5.70;;
15317;SDS011;7759;52.528;13.346;2023-03-13T04:05:36;7.23;;;2.80;;
15317;SDS011;7759;52.528;13.346;2023-03-13T04:08:02;8.60;;;2.43;;
15317;SDS011;7759;52.528;13.346;2023-03-13T04:10:28;6.50;;;2.00;;
15317;SDS011;7759;52.528;13.346;2023-03-13T04:12:54;8.13;;;2.20;;
15317;SDS011;7759;52.528;13.346;2023-03-13T04:15:20;7.57;;;2.23;;
15317;SDS011;7759;52.528;13.346;2023-03-13T04:17:45;5.40;;;1.90;;
15317;SDS011;7759;52.528;13.346;2023-03-13T04:20:11;10.53;;;2.87;;
15317;SDS011;7759;52.528;13.346;2023-03-13T04:22:38;9.90;;;3.00;;
15317;SDS011;7759;52.528;13.346;2023-03-13T04:25:04;7.97;;;2.00;;
15317;SDS011;7759;52.528;13.346;2023-03-13T04:27:31;10.50;;;2.47;;
15317;SDS011;7759;52.528;13.346;2023-03-13T04:29:57;6.87;;;1.77;;
15317;SDS011;7759;52.528;13.346;2023-03-13T04:32:23;7.73;;;2.53;;
15317;SDS011;7759;52.528;13.346;2023-03-13T04:34:49;5.03;;;1.50;;
15317;SDS011;7759;52.528;13.346;2023-03-13T04:37:15;5.87;;;1.53;;
15317;SDS011;7759;52.528;13.346;2023-03-13T04:39:41;6.47;;;2.20;;
15317;SDS011;7759;52.528;13.346;2023-03-13T04:42:08;4.90;;;2.40;;
15317;SDS011;7759;52.528;13.346;2023-03-13T04:44:34;9.70;;;2.50;;
15317;SDS011;7759;52.528;13.346;2023-03-13T04:47:00;6.83;;;2.20;;
15317;SDS011;7759;52.528;13.346;2023-03-13T04:49:26;7.90;;;2.70;;
15317;SDS011;7759;52.528;13.346;2023-03-13T04:51:52;8.30;;;2.17;;
15317;SDS011;7759;52.528;13.346;2023-03-13T04:54:17;9.37;;;2.00;;
15317;SDS011;7759;52.528;13.346;2023-03-13T04:56:43;5.60;;;1.60;;
15317;SDS011;7759;52.528;13.346;2023-03-13T04:59:10;9.33;;;2.77;;
15317;SDS011;7759;52.528;13.346;2023-03-13T05:01:36;9.40;;;2.10;;
15317;SDS011;7759;52.528;13.346;2023-03-13T05:04:02;6.73;;;2.10;;
15317;SDS011;7759;52.528;13.346;2023-03-13T05:06:28;9.53;;;2.70;;
15317;SDS011;7759;52.528;13.346;2023-03-13T05:08:54;10.27;;;2.37;;
15317;SDS011;7759;52.528;13.346;2023-03-13T05:11:20;7.20;;;2.37;;
15317;SDS011;7759;52.528;13.346;2023-03-13T05:13:46;11.40;;;2.30;;
15317;SDS011;7759;52.528;13.346;2023-03-13T05:16:12;4.03;;;2.03;;
15317;SDS011;7759;52.528;13.346;2023-03-13T05:18:38;8.33;;;1.77;;
15317;SDS011;7759;52.528;13.346;2023-03-13T05:21:04;12.47;;;2.37;;
15317;SDS011;7759;52.528;13.346;2023-03-13T05:23:30;10.97;;;2.60;;
15317;SDS011;7759;52.528;13.346;2023-03-13T05:25:56;6.03;;;1.97;;
15317;SDS011;7759;52.528;13.346;2023-03-13T05:28:22;9.73;;;2.33;;
15317;SDS011;7759;52.528;13.346;2023-03-13T05:30:48;6.47;;;1.77;;
15317;SDS011;7759;52.528;13.346;2023-03-13T05:33:14;9.90;;;2.33;;
15317;SDS011;7759;52.528;13.346;2023-03-13T05:35:40;9.73;;;2.50;;
15317;SDS011;7759;52.528;13.346;2023-03-13T05:38:06;11.27;;;2.67;;
15317;SDS011;7759;52.528;13.346;2023-03-13T05:40:32;6.00;;;1.97;;
15317;SDS011;7759;52.528;13.346;2023-03-13T05:42:58;8.50;;;2.07;;
15317;SDS011;7759;52.528;13.346;2023-03-13T05:45:24;4.07;;;1.67;;
15317;SDS011;7759;52.528;13.346;2023-03-13T05:47:50;10.10;;;1.93;;
15317;SDS011;7759;52.528;13.346;2023-03-13T05:50:16;5.30;;;1.67;;
15317;SDS011;7759;52.528;13.346;2023-03-13T05:52:42;6.63;;;2.37;;
15317;SDS011;7759;52.528;13.346;2023-03-13T05:55:08;10.73;;;2.20;;
15317;SDS011;7759;52.528;13.346;2023-03-13T05:57:34;6.07;;;1.70;;
15317;SDS011;7759;52.528;13.346;2023-03-13T06:00:00;8.67;;;2.67;;
15317;SDS011;7759;52.528;13.346;2023-03-13T06:02:26;9.63;;;2.17;;
15317;SDS011;7759;52.528;13.346;2023-03-13T06:04:52;4.67;;;1.67;;
15317;SDS011;7759;52.528;13.346;2023-03-13T06:07:18;4.70;;;2.30;;
15317;SDS011;7759;52.528;13.346;2023-03-13T06:09:44;7.50;;;2.03;;
15317;SDS011;7759;52.528;13.346;2023-03-13T06:12:10;10.40;;;2.20;;
15317;SDS011;7759;52.528;13.346;2023-03-13T06:14:36;6.83;;;2.07;;
15317;SDS011;7759;52.528;13.346;2023-03-13T06:17:03;7.03;;;2.30;;
15317;SDS011;7759;52.528;13.346;2023-03-13T06:19:29;10.60;;;2.47;;
15317;SDS011;7759;52.528;13.346;2023-03-13T06:21:55;8.73;;;2.20;;
15317;SDS011;7759;52.528;13.346;2023-03-13T06:24:21;9.40;;;2.10;;
15317;SDS011;7759;52.528;13.346;2023-03-13T06:26:47;7.87;;;2.37;;
15317;SDS011;7759;52.528;13.346;2023-03-13T06:29:13;5.50;;;2.10;;
15317;SDS011;7759;52.528;13.346;2023-03-13T06:31:39;13.00;;;2.53;;
15317;SDS011;7759;52.528;13.346;2023-03-13T06:34:05;14.00;;;2.67;;
15317;SDS011;7759;52.528;13.346;2023-03-13T06:36:31;8.27;;;1.97;;
15317;SDS011;7759;52.528;13.346;2023-03-13T06:38:57;15.40;;;2.73;;
15317;SDS011;7759;52.528;13.346;2023-03-13T06:41:23;7.30;;;2.77;;
15317;SDS011;7759;52.528;13.346;2023-03-13T06:43:49;8.77;;;2.37;;
15317;SDS011;7759;52.528;13.346;2023-03-13T06:46:16;6.63;;;1.93;;
15317;SDS011;7759;52.528;13.346;2023-03-13T06:48:42;12.27;;;2.70;;
15317;SDS011;7759;52.528;13.346;2023-03-13T06:51:10;6.17;;;1.77;;
15317;SDS011;7759;52.528;13.346;2023-03-13T06:53:36;9.00;;;2.07;;
15317;SDS011;7759;52.528;13.346;2023-03-13T06:56:02;11.47;;;2.30;;
15317;SDS011;7759;52.528;13.346;2023-03-13T06:58:28;9.00;;;2.77;;
15317;SDS011;7759;52.528;13.346;2023-03-13T07:00:54;10.43;;;2.13;;
15317;SDS011;7759;52.528;13.346;2023-03-13T07:03:20;8.87;;;2.97;;
15317;SDS011;7759;52.528;13.346;2023-03-13T07:05:46;4.97;;;2.00;;
15317;SDS011;7759;52.528;13.346;2023-03-13T07:08:11;9.30;;;2.17;;
15317;SDS011;7759;52.528;13.346;2023-03-13T07:10:37;4.77;;;2.23;;
15317;SDS011;7759;52.528;13.346;2023-03-13T07:13:03;9.50;;;2.70;;
15317;SDS011;7759;52.528;13.346;2023-03-13T07:15:29;6.57;;;2.43;;
15317;SDS011;7759;52.528;13.346;2023-03-13T07:17:55;15.00;;;2.43;;
15317;SDS011;7759;52.528;13.346;2023-03-13T07:20:22;5.47;;;1.80;;
15317;SDS011;7759;52.528;13.346;2023-03-13T07:22:52;6.70;;;2.40;;
15317;SDS011;7759;52.528;13.346;2023-03-13T07:25:18;7.73;;;2.30;;
15317;SDS011;7759;52.528;13.346;2023-03-13T07:27:44;15.20;;;2.27;;
15317;SDS011;7759;52.528;13.346;2023-03-13T07:30:10;9.90;;;2.20;;
15317;SDS011;7759;52.528;13.346;2023-03-13T07:32:36;16.13;;;4.73;;
15317;SDS011;7759;52.528;13.346;2023-03-13T07:35:02;11.67;;;2.83;;
15317;SDS011;7759;52.528;13.346;2023-03-13T07:37:28;12.83;;;2.60;;
15317;SDS011;7759;52.528;13.346;2023-03-13T07:39:54;8.40;;;2.07;;
15317;SDS011;7759;52.528;13.346;2023-03-13T07:42:20;14.63;;;2.40;;
15317;SDS011;7759;52.528;13.346;2023-03-13T07:44:46;6.57;;;2.20;;
15317;SDS011;7759;52.528;13.346;2023-03-13T07:47:12;12.77;;;2.63;;
15317;SDS011;7759;52.528;13.346;2023-03-13T07:49:38;10.80;;;2.60;;
15317;SDS011;7759;52.528;13.346;2023-03-13T07:52:07;8.40;;;2.63;;
15317;SDS011;7759;52.528;13.346;2023-03-13T07:54:33;15.30;;;2.63;;
15317;SDS011;7759;52.528;13.346;2023-03-13T07:57:00;9.30;;;2.27;;
15317;SDS011;7759;52.528;13.346;2023-03-13T07:59:26;8.63;;;2.67;;
15317;SDS011;7759;52.528;13.346;2023-03-13T08:01:52;7.47;;;2.07;;
15317;SDS011;7759;52.528;13.346;2023-03-13T08:04:18;8.17;;;2.10;;
15317;SDS011;7759;52.528;13.346;2023-03-13T08:06:44;10.77;;;2.67;;
15317;SDS011;7759;52.528;13.346;2023-03-13T08:09:10;8.07;;;2.30;;
15317;SDS011;7759;52.528;13.346;2023-03-13T08:11:37;9.47;;;1.93;;
15317;SDS011;7759;52.528;13.346;2023-03-13T08:14:04;13.17;;;2.43;;
15317;SDS011;7759;52.528;13.346;2023-03-13T08:16:30;10.97;;;2.33;;
15317;SDS011;7759;52.528;13.346;2023-03-13T08:18:58;8.23;;;2.07;;
15317;SDS011;7759;52.528;13.346;2023-03-13T08:21:27;5.37;;;1.60;;
15317;SDS011;7759;52.528;13.346;2023-03-13T08:23:54;5.83;;;2.03;;
15317;SDS011;7759;52.528;13.346;2023-03-13T08:26:22;10.17;;;2.60;;
15317;SDS011;7759;52.528;13.346;2023-03-13T08:28:51;8.97;;;2.20;;
15317;SDS011;7759;52.528;13.346;2023-03-13T08:31:18;7.63;;;2.00;;
15317;SDS011;7759;52.528;13.346;2023-03-13T08:33:44;9.17;;;1.97;;
15317;SDS011;7759;52.528;13.346;2023-03-13T08:38:39;7.90;;;1.93;;
15317;SDS011;7759;52.528;13.346;2023-03-13T08:41:08;10.67;;;2.37;;
15317;SDS011;7759;52.528;13.346;2023-03-13T08:43:33;9.93;;;2.13;;
15317;SDS011;7759;52.528;13.346;2023-03-13T08:45:59;6.40;;;2.20;;
15317;SDS011;7759;52.528;13.346;2023-03-13T08:48:25;12.70;;;2.23;;
15317;SDS011;7759;52.528;13.346;2023-03-13T08:51:05;8.77;;;2.40;;
15317;SDS011;7759;52.528;13.346;2023-03-13T08:53:31;3.23;;;1.50;;
15317;SDS011;7759;52.528;13.346;2023-03-13T08:55:58;8.30;;;2.07;;
15317;SDS011;7759;52.528;13.346;2023-03-13T08:58:24;8.83;;;2.10;;
15317;SDS011;7759;52.528;13.346;2023-03-13T09:00:50;4.33;;;1.60;;
15317;SDS011;7759;52.528;13.346;2023-03-13T09:03:16;4.83;;;1.43;;
15317;SDS011;7759;52.528;13.346;2023-03-13T09:05:42;6.83;;;1.83;;
15317;SDS011;7759;52.528;13.346;2023-03-13T09:08:08;7.80;;;2.07;;
15317;SDS011;7759;52.528;13.346;2023-03-13T09:10:34;4.37;;;1.77;;
15317;SDS011;7759;52.528;13.346;2023-03-13T09:13:00;6.67;;;1.70;;
15317;SDS011;7759;52.528;13.346;2023-03-13T09:15:26;5.83;;;1.67;;
15317;SDS011;7759;52.528;13.346;2023-03-13T09:17:52;6.30;;;1.87;;
15317;SDS011;7759;52.528;13.346;2023-03-13T09:20:18;4.20;;;1.70;;
15317;SDS011;7759;52.528;13.346;2023-03-13T09:22:44;5.50;;;1.80;;
15317;SDS011;7759;52.528;13.346;2023-03-13T09:25:10;7.23;;;1.70;;
15317;SDS011;7759;52.528;13.346;2023-03-13T09:27:36;4.93;;;1.67;;
15317;SDS011;7759;52.528;13.346;2023-03-13T09:30:03;4.40;;;1.83;;
15317;SDS011;7759;52.528;13.346;2023-03-13T09:32:29;3.37;;;1.70;;
15317;SDS011;7759;52.528;13.346;2023-03-13T09:34:55;7.90;;;2.37;;
15317;SDS011;7759;52.528;13.346;2023-03-13T09:37:21;6.50;;;1.90;;
15317;SDS011;7759;52.528;13.346;2023-03-13T09:39:47;6.67;;;2.10;;
15317;SDS011;7759;52.528;13.346;2023-03-13T09:44:47;6.53;;;2.23;;
15317;SDS011;7759;52.528;13.346;2023-03-13T09:47:17;6.80;;;2.20;;
15317;SDS011;7759;52.528;13.346;2023-03-13T09:49:47;7.60;;;4.87;;
15317;SDS011;7759;52.528;13.346;2023-03-13T09:52:21;5.13;;;2.07;;
15317;SDS011;7759;52.528;13.346;2023-03-13T09:54:49;4.43;;;1.77;;
15317;SDS011;7759;52.528;13.346;2023-03-13T10:00:04;4.07;;;1.90;;
15317;SDS011;7759;52.528;13.346;2023-03-13T10:02:37;7.70;;;1.77;;
15317;SDS011;7759;52.528;13.346;2023-03-13T10:07:35;7.77;;;2.53;;
15317;SDS011;7759;52.528;13.346;2023-03-13T10:10:01;5.60;;;1.60;;
15317;SDS011;7759;52.528;13.346;2023-03-13T10:12:28;5.73;;;1.70;;
15317;SDS011;7759;52.528;13.346;2023-03-13T10:15:15;6.97;;;1.90;;
15317;SDS011;7759;52.528;13.346;2023-03-13T10:17:43;3.70;;;1.37;;
15317;SDS011;7759;52.528;13.346;2023-03-13T10:20:13;2.17;;;1.13;;
15317;SDS011;7759;52.528;13.346;2023-03-13T10:22:42;5.27;;;1.67;;
15317;SDS011;7759;52.528;13.346;2023-03-13T10:25:29;3.40;;;1.40;;
15317;SDS011;7759;52.528;13.346;2023-03-13T10:27:57;5.70;;;1.37;;
15317;SDS011;7759;52.528;13.346;2023-03-13T10:30:33;4.53;;;1.53;;
15317;SDS011;7759;52.528;13.346;2023-03-13T10:33:00;2.83;;;1.53;;
15317;SDS011;7759;52.528;13.346;2023-03-13T10:35:30;5.13;;;1.27;;
15317;SDS011;7759;52.528;13.346;2023-03-13T10:38:04;1.93;;;1.20;;
15317;SDS011;7759;52.528;13.346;2023-03-13T10:40:31;2.03;;;1.37;;
15317;SDS011;7759;52.528;13.346;2023-03-13T10:43:04;5.80;;;1.63;;
15317;SDS011;7759;52.528;13.346;2023-03-13T10:45:34;5.20;;;1.30;;
15317;SDS011;7759;52.528;13.346;2023-03-13T10:48:02;2.87;;;1.33;;
15317;SDS011;7759;52.528;13.346;2023-03-13T10:50:31;1.43;;;1.00;;
15317;SDS011;7759;52.528;13.346;2023-03-13T10:52:58;3.67;;;1.10;;
15317;SDS011;7759;52.528;13.346;2023-03-13T10:55:32;2.50;;;1.07;;
15317;SDS011;7759;52.528;13.346;2023-03-13T10:57:58;4.30;;;1.80;;
15317;SDS011;7759;52.528;13.346;2023-03-13T11:00:38;5.23;;;1.60;;
15317;SDS011;7759;52.528;13.346;2023-03-13T11:03:15;3.70;;;1.30;;
15317;SDS011;7759;52.528;13.346;2023-03-13T11:05:42;1.63;;;1.10;;
15317;SDS011;7759;52.528;13.346;2023-03-13T11:08:18;3.27;;;1.20;;
15317;SDS011;7759;52.528;13.346;2023-03-13T11:13:26;3.63;;;1.00;;
15317;SDS011;7759;52.528;13.346;2023-03-13T11:15:59;1.47;;;0.90;;
15317;SDS011;7759;52.528;13.346;2023-03-13T11:18:29;1.67;;;0.80;;
15317;SDS011;7759;52.528;13.346;2023-03-13T11:20:57;3.10;;;1.50;;
15317;SDS011;7759;52.528;13.346;2023-03-13T11:23:42;1.67;;;1.10;;
15317;SDS011;7759;52.528;13.346;2023-03-13T11:26:28;4.37;;;1.40;;
15317;SDS011;7759;52.528;13.346;2023-03-13T11:28:57;2.17;;;1.03;;
15317;SDS011;7759;52.528;13.346;2023-03-13T11:31:28;1.87;;;1.00;;
15317;SDS011;7759;52.528;13.346;2023-03-13T11:36:33;1.87;;;1.00;;
15317;SDS011;7759;52.528;13.346;2023-03-13T11:39:22;4.90;;;1.20;;
15317;SDS011;7759;52.528;13.346;2023-03-13T11:47:38;1.50;;;1.00;;
15317;SDS011;7759;52.528;13.346;2023-03-13T11:58:25;1.80;;;1.20;;
15317;SDS011;7759;52.528;13.346;2023-03-13T12:01:13;1.37;;;0.80;;
15317;SDS011;7759;52.528;13.346;2023-03-13T12:03:57;1.23;;;0.80;;
15317;SDS011;7759;52.528;13.346;2023-03-13T12:06:28;1.77;;;1.10;;
15317;SDS011;7759;52.528;13.346;2023-03-13T12:09:00;2.30;;;1.00;;
15317;SDS011;7759;52.528;13.346;2023-03-13T12:11:30;1.23;;;0.90;;
15317;SDS011;7759;52.528;13.346;2023-03-13T12:13:59;2.47;;;1.10;;
15317;SDS011;7759;52.528;13.346;2023-03-13T12:16:31;1.50;;;0.80;;
15317;SDS011;7759;52.528;13.346;2023-03-13T12:19:01;1.10;;;0.70;;
15317;SDS011;7759;52.528;13.346;2023-03-13T12:21:31;1.40;;;0.73;;
15317;SDS011;7759;52.528;13.346;2023-03-13T12:24:12;1.10;;;1.00;;
15317;SDS011;7759;52.528;13.346;2023-03-13T12:26:48;3.37;;;0.80;;
15317;SDS011;7759;52.528;13.346;2023-03-13T12:34:33;1.50;;;1.37;;
15317;SDS011;7759;52.528;13.346;2023-03-13T12:37:02;2.97;;;0.90;;
15317;SDS011;7759;52.528;13.346;2023-03-13T12:39:34;1.90;;;0.90;;
15317;SDS011;7759;52.528;13.346;2023-03-13T12:42:19;2.93;;;0.60;;
15317;SDS011;7759;52.528;13.346;2023-03-13T12:44:48;2.37;;;1.43;;
15317;SDS011;7759;52.528;13.346;2023-03-13T12:47:29;3.23;;;1.20;;
15317;SDS011;7759;52.528;13.346;2023-03-13T12:57:52;2.97;;;0.83;;
15317;SDS011;7759;52.528;13.346;2023-03-13T13:00:25;1.93;;;0.70;;
15317;SDS011;7759;52.528;13.346;2023-03-13T13:08:26;1.23;;;0.87;;
15317;SDS011;7759;52.528;13.346;2023-03-13T13:11:33;1.90;;;1.03;;
15317;SDS011;7759;52.528;13.346;2023-03-13T13:13:42;0.50;;;0.50;;
15317;SDS011;7759;52.528;13.346;2023-03-13T13:16:10;1.33;;;0.90;;
15317;SDS011;7759;52.528;13.346;2023-03-13T13:18:39;1.30;;;1.10;;
15317;SDS011;7759;52.528;13.346;2023-03-13T13:23:41;1.47;;;0.77;;
15317;SDS011;7759;52.528;13.346;2023-03-13T13:36:54;0.60;;;0.50;;
15317;SDS011;7759;52.528;13.346;2023-03-13T13:39:36;1.80;;;0.90;;
15317;SDS011;7759;52.528;13.346;2023-03-13T13:47:42;1.35;;;0.77;;
15317;SDS011;7759;52.528;13.346;2023-03-13T13:50:21;1.43;;;0.80;;
15317;SDS011;7759;52.528;13.346;2023-03-13T13:52:47;2.80;;;1.00;;
15317;SDS011;7759;52.528;13.346;2023-03-13T13:58:05;1.33;;;0.90;;
15317;SDS011;7759;52.528;13.346;2023-03-13T14:00:37;1.67;;;0.80;;
15317;SDS011;7759;52.528;13.346;2023-03-13T14:03:22;0.70;;;0.70;;
15317;SDS011;7759;52.528;13.346;2023-03-13T14:05:49;1.83;;;0.77;;
15317;SDS011;7759;52.528;13.346;2023-03-13T14:08:19;3.40;;;1.30;;
15317;SDS011;7759;52.528;13.346;2023-03-13T14:13:31;1.17;;;0.80;;
15317;SDS011;7759;52.528;13.346;2023-03-13T14:15:57;1.42;;;0.60;;
15317;SDS011;7759;52.528;13.346;2023-03-13T14:18:35;1.20;;;0.90;;
15317;SDS011;7759;52.528;13.346;2023-03-13T14:21:07;0.70;;;0.60;;
15317;SDS011;7759;52.528;13.346;2023-03-13T14:26:14;1.70;;;1.00;;
15317;SDS011;7759;52.528;13.346;2023-03-13T14:28:42;1.25;;;0.80;;
15317;SDS011;7759;52.528;13.346;2023-03-13T14:31:08;2.05;;;0.82;;
15317;SDS011;7759;52.528;13.346;2023-03-13T14:33:35;1.23;;;0.73;;
15317;SDS011;7759;52.528;13.346;2023-03-13T14:36:02;3.53;;;0.95;;
15317;SDS011;7759;52.528;13.346;2023-03-13T14:38:28;2.72;;;1.00;;
15317;SDS011;7759;52.528;13.346;2023-03-13T14:40:54;2.15;;;1.17;;
15317;SDS011;7759;52.528;13.346;2023-03-13T14:43:22;1.33;;;0.90;;
15317;SDS011;7759;52.528;13.346;2023-03-13T14:45:49;1.15;;;0.90;;
15317;SDS011;7759;52.528;13.346;2023-03-13T14:48:19;1.08;;;0.70;;
15317;SDS011;7759;52.528;13.346;2023-03-13T14:50:46;4.53;;;1.10;;
15317;SDS011;7759;52.528;13.346;2023-03-13T14:53:15;1.73;;;0.93;;
15317;SDS011;7759;52.528;13.346;2023-03-13T14:55:42;1.58;;;0.90;;
15317;SDS011;7759;52.528;13.346;2023-03-13T14:58:28;2.80;;;1.20;;
15317;SDS011;7759;52.528;13.346;2023-03-13T15:00:55;0.90;;;0.90;;
15317;SDS011;7759;52.528;13.346;2023-03-13T15:03:26;1.02;;;0.70;;
15317;SDS011;7759;52.528;13.346;2023-03-13T15:08:41;1.83;;;0.80;;
15317;SDS011;7759;52.528;13.346;2023-03-13T15:11:27;0.80;;;0.75;;
15317;SDS011;7759;52.528;13.346;2023-03-13T15:13:54;1.23;;;0.90;;
15317;SDS011;7759;52.528;13.346;2023-03-13T15:16:20;1.05;;;0.95;;
15317;SDS011;7759;52.528;13.346;2023-03-13T15:18:47;2.70;;;1.60;;
15317;SDS011;7759;52.528;13.346;2023-03-13T15:23:44;2.95;;;1.00;;
15317;SDS011;7759;52.528;13.346;2023-03-13T15:26:13;0.80;;;0.80;;
15317;SDS011;7759;52.528;13.346;2023-03-13T15:28:39;3.70;;;1.02;;
15317;SDS011;7759;52.528;13.346;2023-03-13T15:31:04;2.78;;;1.08;;
15317;SDS011;7759;52.528;13.346;2023-03-13T15:33:30;2.78;;;1.00;;
15317;SDS011;7759;52.528;13.346;2023-03-13T15:35:56;2.97;;;0.88;;
15317;SDS011;7759;52.528;13.346;2023-03-13T15:38:23;3.05;;;1.05;;
15317;SDS011;7759;52.528;13.346;2023-03-13T15:40:49;3.22;;;1.30;;
15317;SDS011;7759;52.528;13.346;2023-03-13T15:43:16;0.80;;;0.80;;
15317;SDS011;7759;52.528;13.346;2023-03-13T15:45:43;1.40;;;0.55;;
15317;SDS011;7759;52.528;13.346;2023-03-13T15:48:16;2.77;;;1.10;;
15317;SDS011;7759;52.528;13.346;2023-03-13T15:50:43;3.70;;;1.13;;
15317;SDS011;7759;52.528;13.346;2023-03-13T15:53:17;1.77;;;1.00;;
15317;SDS011;7759;52.528;13.346;2023-03-13T15:55:44;1.65;;;1.05;;
15317;SDS011;7759;52.528;13.346;2023-03-13T15:58:10;2.35;;;0.95;;
15317;SDS011;7759;52.528;13.346;2023-03-13T16:00:37;2.53;;;0.80;;
15317;SDS011;7759;52.528;13.346;2023-03-13T16:03:03;2.55;;;1.10;;
15317;SDS011;7759;52.528;13.346;2023-03-13T16:05:29;2.65;;;0.90;;
15317;SDS011;7759;52.528;13.346;2023-03-13T16:07:55;1.65;;;0.85;;
15317;SDS011;7759;52.528;13.346;2023-03-13T16:10:22;1.13;;;0.90;;
15317;SDS011;7759;52.528;13.346;2023-03-13T16:12:48;4.93;;;0.93;;
15317;SDS011;7759;52.528;13.346;2023-03-13T16:15:14;1.20;;;1.10;;